Gilboa, New York
Current Conditions -  °F | °C
As of 12:51 PM on Wednesday 26 Nov 2014 (Local Time) from KALB Reporting Station
Moderate Snow Moderate Snow  
Wind Chill: 28°   Ceiling: 500
Heat Index: 33°   Visibility: 0.5mi
Dew Point: 31°   Wind: 6mph
Humidity: 92%   Direction: 350°N
Pressure: 30.13"   Gusts: NA
Location:  42.4°N, 74.45°W
Report Text: KALB 261751Z 35005KT 1/2SM R01/2600V3500FT SN FG VV005 01/M01 A3013 RMK AO2 SLP207 SNINCR 1/2 4/002 933001 P0011 60014 T00061006 10033 20006 58013
Loading
Personal Weather Stations






























Interactive Weather Map New forecast layout! Learn more

10-Day Weather Forecast

Advertisements
Track Severe Weather on mobile